Time;durP1;ratioP1;P1;durP2;ratioP2;P2;SDS_P1;SDS_P2;PMS_P1;PMS_P2;Temp;Humidity;BMP_temperature;BMP_pressure;BME280_temperature;BME280_humidity;BME280_pressure;Samples;Min_cycle;Max_cycle;Signal;HPM_P1;HPM_P2
2021/11/11 00:02:00;;;;;;;12.25;8.25;;;11.40;64.60;;;;;;5052540;28;20061;-72
2021/11/11 00:04:26;;;;;;;14.05;9.27;;;11.30;64.50;;;;;;5052879;28;20052;-72
2021/11/11 00:06:52;;;;;;;12.70;8.52;;;11.30;64.50;;;;;;5052569;28;20397;-71
2021/11/11 00:09:18;;;;;;;14.13;8.75;;;11.30;64.50;;;;;;5052792;28;20033;-71
2021/11/11 00:11:44;;;;;;;11.18;7.78;;;11.20;64.90;;;;;;5052561;28;20021;-72
2021/11/11 00:14:10;;;;;;;13.95;8.45;;;11.30;65.60;;;;;;5052624;28;20043;-72
2021/11/11 00:16:37;;;;;;;15.43;8.82;;;11.20;65.40;;;;;;5052223;28;20031;-72
2021/11/11 00:19:03;;;;;;;11.85;7.95;;;11.20;65.20;;;;;;5052304;28;20045;-71
2021/11/11 00:21:29;;;;;;;10.70;7.70;;;11.20;65.30;;;;;;5053232;28;20112;-72
2021/11/11 00:23:55;;;;;;;15.15;8.80;;;11.20;65.40;;;;;;5052660;28;20036;-72
2021/11/11 00:26:21;;;;;;;13.82;8.63;;;11.10;65.20;;;;;;5052318;28;20033;-72
2021/11/11 00:28:47;;;;;;;11.02;8.55;;;11.10;65.00;;;;;;5052333;28;20032;-72
2021/11/11 00:31:12;;;;;;;15.82;8.60;;;11.10;65.30;;;;;;5052742;28;20503;-72
2021/11/11 00:33:38;;;;;;;11.70;7.97;;;11.00;65.80;;;;;;5052493;28;20119;-72
2021/11/11 00:36:05;;;;;;;10.55;7.95;;;11.00;65.70;;;;;;5052442;28;20354;-72
2021/11/11 00:38:31;;;;;;;12.68;7.22;;;11.00;65.80;;;;;;5052350;28;20107;-72
2021/11/11 00:40:56;;;;;;;12.15;7.53;;;11.00;65.70;;;;;;5052394;28;20123;-71
2021/11/11 00:43:22;;;;;;;12.15;7.13;;;11.00;65.90;;;;;;5052475;28;20040;-71
2021/11/11 00:45:49;;;;;;;12.20;8.18;;;11.00;66.00;;;;;;5052415;28;20381;-70
2021/11/11 00:48:15;;;;;;;9.95;7.10;;;11.00;65.80;;;;;;5052347;28;20036;-71
2021/11/11 00:50:41;;;;;;;12.48;7.15;;;11.00;65.80;;;;;;5067799;28;20025;-70
2021/11/11 00:53:07;;;;;;;10.45;7.57;;;11.00;65.70;;;;;;5051924;28;20037;-71
2021/11/11 00:55:37;;;;;;;12.48;8.25;;;11.00;65.80;;;;;;5052467;28;20025;-70
2021/11/11 00:58:04;;;;;;;14.00;8.95;;;11.00;65.90;;;;;;5052267;28;20505;-71
2021/11/11 01:00:30;;;;;;;11.32;7.97;;;11.00;65.90;;;;;;5052372;28;20086;-71
2021/11/11 01:02:57;;;;;;;13.05;8.35;;;11.00;65.90;;;;;;5052376;28;20044;-72
2021/11/11 01:05:23;;;;;;;13.52;8.80;;;10.90;66.40;;;;;;5052368;28;20055;-71
2021/11/11 01:07:52;;;;;;;11.98;8.30;;;10.90;66.20;;;;;;5052185;28;20450;-71
2021/11/11 01:10:19;;;;;;;10.82;8.55;;;10.90;66.30;;;;;;5052191;28;20071;-72
2021/11/11 01:12:47;;;;;;;10.68;7.80;;;10.90;66.30;;;;;;5052296;28;20067;-71
2021/11/11 01:15:16;;;;;;;14.07;8.40;;;10.80;66.20;;;;;;5051963;28;20025;-70
2021/11/11 01:17:42;;;;;;;12.68;8.55;;;10.80;66.20;;;;;;5051592;28;20577;-71
2021/11/11 01:20:09;;;;;;;12.38;8.38;;;10.80;66.30;;;;;;5052921;28;20019;-71
2021/11/11 01:22:39;;;;;;;10.95;7.93;;;10.80;66.40;;;;;;5055434;28;20025;-71
2021/11/11 01:25:07;;;;;;;17.13;8.30;;;10.80;66.60;;;;;;5055517;28;20033;-70
2021/11/11 01:27:33;;;;;;;13.10;7.67;;;10.70;66.80;;;;;;5055288;28;20477;-71
2021/11/11 01:30:00;;;;;;;9.20;7.07;;;10.80;67.10;;;;;;5055075;28;20017;-71
2021/11/11 01:32:25;;;;;;;11.85;8.30;;;10.70;67.00;;;;;;5055254;28;20028;-71
2021/11/11 01:34:51;;;;;;;12.00;7.25;;;10.70;67.10;;;;;;5055259;28;20025;-72
2021/11/11 01:37:17;;;;;;;15.00;7.90;;;10.70;66.80;;;;;;5055409;28;20043;-72
2021/11/11 01:39:43;;;;;;;13.75;7.45;;;10.70;67.10;;;;;;5055323;28;20029;-71
2021/11/11 01:42:08;;;;;;;13.57;8.02;;;10.70;67.00;;;;;;5055413;28;20024;-71
2021/11/11 01:44:34;;;;;;;12.37;7.20;;;10.60;67.10;;;;;;5055358;28;20024;-72
2021/11/11 01:47:00;;;;;;;12.98;8.07;;;10.60;67.20;;;;;;5055069;28;20497;-71
2021/11/11 01:49:26;;;;;;;14.77;7.40;;;10.60;67.10;;;;;;5055005;28;20032;-72
2021/11/11 01:51:52;;;;;;;10.73;7.75;;;10.60;67.20;;;;;;5054802;28;20025;-72
2021/11/11 01:54:18;;;;;;;11.23;7.07;;;10.60;67.20;;;;;;5055045;28;20024;-71
2021/11/11 01:56:45;;;;;;;8.23;6.70;;;10.60;67.50;;;;;;5055115;28;20478;-71
2021/11/11 01:59:11;;;;;;;10.23;7.20;;;10.50;67.40;;;;;;5052088;28;20021;-72
2021/11/11 02:01:37;;;;;;;10.02;6.95;;;10.50;67.30;;;;;;5051999;28;20056;-71
2021/11/11 02:04:03;;;;;;;11.63;7.30;;;10.50;67.30;;;;;;5052440;28;20033;-70
2021/11/11 02:06:29;;;;;;;9.45;7.45;;;10.50;67.30;;;;;;5054539;28;20028;-72
2021/11/11 02:08:55;;;;;;;9.55;7.53;;;10.50;67.20;;;;;;5054673;28;20029;-71
2021/11/11 02:11:22;;;;;;;10.23;6.95;;;10.50;67.30;;;;;;5054796;28;20373;-71
2021/11/11 02:13:49;;;;;;;10.65;7.70;;;10.50;67.50;;;;;;5054096;28;20041;-71
2021/11/11 02:16:15;;;;;;;11.65;6.70;;;10.50;67.60;;;;;;5054785;28;20382;-72
2021/11/11 02:18:40;;;;;;;16.02;7.10;;;10.50;67.80;;;;;;5054188;28;20045;-71
2021/11/11 02:21:06;;;;;;;9.48;6.78;;;10.40;67.60;;;;;;5054189;28;20032;-71
2021/11/11 02:23:33;;;;;;;9.55;6.40;;;10.40;67.60;;;;;;5054440;28;20062;-71
2021/11/11 02:25:59;;;;;;;11.02;6.88;;;10.40;68.20;;;;;;5053041;28;20496;-71
2021/11/11 02:28:25;;;;;;;15.25;7.47;;;10.40;67.60;;;;;;5053999;28;20107;-73
2021/11/11 02:30:54;;;;;;;10.05;6.63;;;10.40;67.70;;;;;;5054064;28;20568;-72
2021/11/11 02:33:26;;;;;;;11.55;6.68;;;10.40;67.60;;;;;;5053542;28;20037;-71
2021/11/11 02:35:52;;;;;;;12.70;7.50;;;10.30;67.90;;;;;;5053896;28;20032;-71
2021/11/11 02:38:19;;;;;;;10.85;7.22;;;10.30;68.00;;;;;;5054048;28;20028;-72
2021/11/11 02:40:45;;;;;;;11.07;7.30;;;10.30;68.00;;;;;;5054125;28;20029;-73
2021/11/11 02:43:13;;;;;;;11.55;6.88;;;10.30;68.20;;;;;;5054018;28;20033;-72
2021/11/11 02:45:43;;;;;;;16.25;7.53;;;10.30;68.30;;;;;;5054184;28;20443;-72
2021/11/11 02:48:12;;;;;;;10.32;6.63;;;10.30;68.20;;;;;;5053875;28;20025;-72
2021/11/11 02:50:39;;;;;;;10.10;6.67;;;10.30;68.30;;;;;;5053661;28;20377;-72
2021/11/11 02:53:06;;;;;;;9.43;6.97;;;10.30;68.40;;;;;;5052508;28;20033;-72
2021/11/11 02:55:32;;;;;;;12.30;6.70;;;10.30;68.70;;;;;;5052333;28;20017;-72
2021/11/11 02:57:59;;;;;;;11.17;7.10;;;10.20;68.90;;;;;;5053559;28;20083;-71
2021/11/11 03:00:32;;;;;;;11.23;7.23;;;10.20;69.10;;;;;;5053757;28;20405;-73
2021/11/11 03:02:57;;;;;;;;;;;10.20;69.10;;;;;;5054216;28;20033;-72
2021/11/11 03:05:27;;;;;;;11.53;7.20;;;10.10;69.00;;;;;;5052466;28;20342;-72
2021/11/11 03:07:53;;;;;;;10.97;7.13;;;10.10;69.20;;;;;;5053392;28;20359;-72
2021/11/11 03:10:22;;;;;;;10.03;7.10;;;10.10;69.40;;;;;;5053652;28;20048;-72
2021/11/11 03:12:49;;;;;;;12.63;7.50;;;10.10;69.70;;;;;;5053643;28;20078;-72
2021/11/11 03:15:15;;;;;;;10.70;7.70;;;10.00;69.80;;;;;;5053604;28;20409;-72
2021/11/11 03:17:42;;;;;;;13.10;7.23;;;10.10;69.90;;;;;;5053363;28;20079;-73
2021/11/11 03:20:09;;;;;;;13.50;7.70;;;10.10;69.90;;;;;;5053446;28;20024;-71
2021/11/11 03:22:35;;;;;;;11.02;8.15;;;10.10;70.00;;;;;;5053202;28;20025;-72
2021/11/11 03:25:00;;;;;;;11.97;7.57;;;10.10;70.20;;;;;;5053520;28;20021;-72
2021/11/11 03:27:27;;;;;;;10.30;7.23;;;10.00;70.30;;;;;;5053109;28;20500;-72
2021/11/11 03:29:53;;;;;;;9.83;7.37;;;10.00;70.50;;;;;;5053261;28;20025;-72
2021/11/11 03:32:21;;;;;;;13.97;8.23;;;10.00;70.60;;;;;;5053158;28;20107;-72
2021/11/11 03:34:48;;;;;;;10.00;7.67;;;9.90;70.70;;;;;;5053023;28;20021;-72
2021/11/11 03:37:14;;;;;;;10.40;8.33;;;10.00;70.70;;;;;;5053069;28;20025;-72
2021/11/11 03:39:40;;;;;;;12.70;7.97;;;10.00;70.50;;;;;;5053285;28;20541;-73
2021/11/11 03:42:07;;;;;;;15.23;8.35;;;10.00;70.40;;;;;;5053099;28;20520;-71
2021/11/11 03:44:33;;;;;;;12.23;7.87;;;10.00;70.80;;;;;;5052710;28;20492;-74
2021/11/11 03:47:01;;;;;;;13.57;7.17;;;10.00;70.90;;;;;;5052892;28;20025;-73
2021/11/11 03:49:27;;;;;;;12.13;7.37;;;10.00;70.90;;;;;;5052951;28;20125;-72
2021/11/11 03:51:54;;;;;;;10.47;7.40;;;10.00;70.80;;;;;;5052703;28;20106;-71
2021/11/11 03:54:22;;;;;;;10.53;7.17;;;10.00;70.90;;;;;;5052754;28;20032;-72
2021/11/11 03:56:48;;;;;;;8.30;6.70;;;10.00;70.90;;;;;;5052970;28;20074;-71
2021/11/11 03:59:16;;;;;;;10.97;7.30;;;10.00;70.90;;;;;;5052824;28;20021;-70
2021/11/11 04:01:43;;;;;;;10.03;6.97;;;10.00;71.10;;;;;;5052962;28;20079;-72
2021/11/11 04:04:09;;;;;;;11.40;6.53;;;10.00;71.20;;;;;;5052600;28;20036;-71
2021/11/11 04:06:36;;;;;;;9.90;5.90;;;10.00;71.20;;;;;;5052715;28;20021;-72
2021/11/11 04:09:02;;;;;;;8.00;6.00;;;10.00;71.20;;;;;;5052240;28;20029;-71
2021/11/11 04:11:29;;;;;;;10.53;5.83;;;10.00;71.40;;;;;;5052707;28;20039;-71
2021/11/11 04:13:56;;;;;;;8.13;5.77;;;10.00;71.40;;;;;;5052583;28;20093;-72
2021/11/11 04:16:21;;;;;;;9.50;5.97;;;10.10;71.40;;;;;;5052576;28;20021;-71
2021/11/11 04:18:47;;;;;;;10.03;6.60;;;10.10;71.20;;;;;;5052317;28;20516;-71
2021/11/11 04:21:15;;;;;;;9.70;6.17;;;10.10;71.10;;;;;;5052550;28;20024;-72
2021/11/11 04:23:41;;;;;;;10.23;6.20;;;10.10;71.00;;;;;;5052595;28;20535;-71
2021/11/11 04:26:13;;;;;;;9.17;6.30;;;10.10;71.00;;;;;;5052620;28;20033;-71
2021/11/11 04:28:47;;;;;;;7.15;5.88;;;10.10;71.10;;;;;;5052427;28;20027;-72
2021/11/11 04:31:39;;;;;;;10.03;5.47;;;10.00;71.40;;;;;;5052546;28;20029;-71
2021/11/11 04:34:03;;;;;;;7.73;5.57;;;10.00;71.40;;;;;;5052075;28;20068;-72
2021/11/11 05:05:39;;;;;;;8.43;6.93;;;9.60;71.10;;;;;;5055968;28;20108;-72
2021/11/11 05:08:05;;;;;;;9.10;7.03;;;9.60;71.40;;;;;;5055925;28;20041;-74
2021/11/11 05:10:31;;;;;;;12.07;7.50;;;9.60;71.40;;;;;;5055979;28;20158;-71
2021/11/11 05:12:57;;;;;;;9.57;7.13;;;9.60;71.40;;;;;;5055955;28;20090;-71
2021/11/11 05:15:24;;;;;;;14.63;7.40;;;9.60;71.70;;;;;;5055648;28;20100;-71
2021/11/11 05:17:50;;;;;;;11.93;7.57;;;9.60;71.90;;;;;;5055600;28;20041;-71
2021/11/11 05:20:17;;;;;;;11.03;7.00;;;9.60;72.80;;;;;;5055876;28;20053;-72
2021/11/11 05:22:44;;;;;;;11.60;7.07;;;9.60;72.30;;;;;;5055910;28;20027;-72
2021/11/11 05:25:11;;;;;;;9.77;6.70;;;9.60;72.40;;;;;;5055723;28;20465;-72
2021/11/11 05:27:39;;;;;;;10.10;6.53;;;9.60;72.50;;;;;;5055396;28;20032;-72
2021/11/11 05:30:07;;;;;;;13.20;6.80;;;9.60;72.50;;;;;;5055713;28;20047;-72
2021/11/11 05:32:34;;;;;;;10.97;6.93;;;9.60;72.50;;;;;;5055398;28;20025;-72
2021/11/11 05:35:04;;;;;;;16.27;6.50;;;9.60;72.70;;;;;;5055226;28;20056;-71
2021/11/11 05:37:30;;;;;;;12.80;6.90;;;9.60;72.60;;;;;;5055376;28;20013;-72
2021/11/11 05:39:56;;;;;;;9.40;7.07;;;9.60;72.60;;;;;;5055149;28;20036;-72
2021/11/11 05:42:22;;;;;;;8.53;6.53;;;9.60;72.70;;;;;;5055256;28;20036;-73
2021/11/11 05:44:48;;;;;;;11.60;7.20;;;9.60;72.60;;;;;;5055082;28;20032;-72
2021/11/11 05:47:14;;;;;;;10.00;7.07;;;9.60;72.50;;;;;;5055192;28;20024;-73
2021/11/11 05:49:40;;;;;;;12.53;7.03;;;9.60;72.60;;;;;;5055109;28;20092;-74
2021/11/11 05:52:06;;;;;;;11.10;7.57;;;9.60;72.80;;;;;;5054927;28;20121;-72
2021/11/11 05:54:32;;;;;;;11.20;7.17;;;9.60;72.90;;;;;;5054792;28;20043;-72
2021/11/11 05:56:59;;;;;;;10.80;7.07;;;9.60;72.90;;;;;;5054941;28;20025;-72
2021/11/11 05:59:25;;;;;;;9.17;7.37;;;9.60;73.10;;;;;;5055127;28;20024;-72
2021/11/11 06:01:51;;;;;;;14.33;7.33;;;9.50;73.20;;;;;;5055082;28;20025;-73
2021/11/11 06:04:17;;;;;;;9.43;7.30;;;9.50;73.20;;;;;;5054906;28;20033;-73
2021/11/11 06:06:43;;;;;;;9.77;7.00;;;9.50;73.40;;;;;;5054331;28;20068;-72
2021/11/11 06:09:08;;;;;;;10.37;7.37;;;9.60;73.50;;;;;;5054647;28;20098;-73
2021/11/11 06:11:34;;;;;;;10.43;7.20;;;9.50;73.70;;;;;;5054931;28;20028;-72
2021/11/11 06:14:00;;;;;;;16.07;8.13;;;9.50;73.70;;;;;;5053308;28;20530;-72
2021/11/11 06:16:26;;;;;;;12.77;8.07;;;9.50;74.00;;;;;;5052957;28;20021;-72
2021/11/11 06:18:52;;;;;;;10.70;7.53;;;9.50;74.10;;;;;;5054282;28;20048;-71
2021/11/11 06:21:21;;;;;;;11.33;7.20;;;9.50;74.80;;;;;;5055013;28;20021;-72
2021/11/11 06:23:51;;;;;;;17.43;7.77;;;9.50;74.80;;;;;;5054142;28;20035;-72
2021/11/11 06:26:22;;;;;;;12.87;7.20;;;9.50;75.00;;;;;;5054397;28;20496;-73
2021/11/11 06:28:48;;;;;;;11.67;6.83;;;9.50;75.00;;;;;;5054045;28;20032;-72
2021/11/11 06:31:15;;;;;;;9.70;6.97;;;9.60;74.80;;;;;;5053530;28;20021;-72
2021/11/11 06:33:41;;;;;;;10.00;6.87;;;9.60;74.80;;;;;;5053629;28;20021;-71
2021/11/11 06:36:07;;;;;;;16.13;7.90;;;9.60;75.00;;;;;;5053794;28;20024;-71
2021/11/11 06:38:33;;;;;;;11.63;7.23;;;9.60;75.00;;;;;;5052736;28;20487;-72
2021/11/11 06:40:58;;;;;;;11.27;7.50;;;9.60;74.90;;;;;;5053275;28;20036;-72
2021/11/11 06:43:24;;;;;;;12.97;6.83;;;9.70;74.90;;;;;;5052482;28;20024;-70
2021/11/11 06:45:50;;;;;;;13.65;7.80;;;9.70;74.90;;;;;;5052996;28;20132;-72
2021/11/11 06:48:16;;;;;;;15.10;8.43;;;9.70;75.00;;;;;;5053441;28;20116;-70
2021/11/11 06:50:43;;;;;;;12.95;7.72;;;9.70;75.00;;;;;;5031736;28;20037;-70
2021/11/11 06:53:11;;;;;;;12.13;7.87;;;9.70;75.00;;;;;;5053679;28;20033;-70
2021/11/11 06:55:39;;;;;;;11.17;8.80;;;9.70;75.10;;;;;;5053785;28;20044;-68
2021/11/11 06:58:06;;;;;;;12.37;8.30;;;9.80;75.20;;;;;;5052353;28;20029;-70
2021/11/11 07:00:31;;;;;;;16.57;9.67;;;9.80;75.20;;;;;;5052509;28;20382;-68
2021/11/11 07:02:57;;;;;;;18.50;8.43;;;9.80;75.20;;;;;;5053021;28;20029;-68
2021/11/11 07:05:23;;;;;;;13.20;7.63;;;9.90;75.30;;;;;;5052721;28;20477;-69
2021/11/11 07:07:49;;;;;;;10.80;8.10;;;9.90;75.40;;;;;;5053331;28;20025;-70
2021/11/11 07:10:15;;;;;;;13.00;8.00;;;10.00;75.60;;;;;;5043702;28;20033;-68
2021/11/11 07:12:42;;;;;;;16.27;8.03;;;10.00;75.80;;;;;;5073170;28;20057;-69
2021/11/11 07:15:10;;;;;;;14.37;7.47;;;10.00;75.80;;;;;;5073449;28;20106;-68
2021/11/11 07:17:37;;;;;;;13.40;7.80;;;10.10;75.90;;;;;;5072899;28;20029;-68
2021/11/11 07:20:05;;;;;;;14.33;7.37;;;10.10;75.80;;;;;;5073030;28;20515;-70
2021/11/11 07:22:31;;;;;;;24.40;8.47;;;10.20;75.50;;;;;;5072649;28;20029;-71
2021/11/11 07:24:57;;;;;;;18.63;7.78;;;10.30;75.30;;;;;;5069280;28;20029;-71
2021/11/11 07:27:23;;;;;;;15.15;7.28;;;10.40;75.00;;;;;;5070793;28;20029;-72
2021/11/11 07:29:49;;;;;;;17.33;7.10;;;10.40;74.70;;;;;;5072198;28;20017;-72
2021/11/11 07:32:15;;;;;;;16.00;7.32;;;10.50;74.20;;;;;;5073466;28;20025;-71
2021/11/11 07:34:40;;;;;;;11.13;7.10;;;10.60;73.80;;;;;;5073316;28;20032;-72
2021/11/11 07:37:07;;;;;;;10.13;6.20;;;10.60;73.60;;;;;;5072996;28;20487;-71
2021/11/11 07:39:33;;;;;;;18.20;6.60;;;10.70;73.40;;;;;;5072990;28;20035;-70
2021/11/11 07:41:59;;;;;;;26.20;7.43;;;10.70;73.00;;;;;;5073169;28;20063;-70
2021/11/11 07:44:25;;;;;;;21.55;6.75;;;10.80;72.90;;;;;;5070985;28;20064;-70
2021/11/11 07:46:51;;;;;;;9.52;6.65;;;10.90;72.90;;;;;;5070238;28;20389;-70
2021/11/11 07:49:17;;;;;;;31.25;6.68;;;11.00;72.60;;;;;;5071931;28;20028;-70
2021/11/11 07:51:43;;;;;;;20.75;6.80;;;11.00;72.60;;;;;;5073125;28;20365;-71
2021/11/11 07:54:09;;;;;;;26.20;6.75;;;11.00;72.60;;;;;;5072907;28;20433;-71
2021/11/11 07:56:35;;;;;;;24.75;6.18;;;11.10;72.40;;;;;;5072937;28;20052;-70
2021/11/11 07:59:03;;;;;;;18.15;6.82;;;11.20;72.30;;;;;;5073112;28;20029;-70
2021/11/11 08:01:29;;;;;;;12.95;6.68;;;;;;;;;;5073146;28;20077;-71
2021/11/11 08:03:54;;;;;;;9.85;5.72;;;11.30;71.80;;;;;;5072866;28;20067;-70
2021/11/11 08:06:20;;;;;;;16.08;6.57;;;11.40;72.00;;;;;;5072953;28;20082;-70
2021/11/11 08:08:46;;;;;;;13.48;6.03;;;11.50;72.60;;;;;;5073112;28;20020;-70
2021/11/11 08:11:12;;;;;;;13.77;5.80;;;11.50;71.70;;;;;;5073168;28;20032;-70
2021/11/11 08:13:38;;;;;;;10.23;5.90;;;11.50;71.30;;;;;;5072737;28;20098;-71
2021/11/11 08:16:04;;;;;;;15.35;6.25;;;11.60;71.40;;;;;;5072861;28;20035;-70
2021/11/11 08:18:30;;;;;;;29.42;6.30;;;11.60;70.80;;;;;;5072587;28;20048;-71
2021/11/11 08:20:55;;;;;;;22.85;7.05;;;11.70;70.60;;;;;;5072864;28;20484;-71
2021/11/11 08:23:22;;;;;;;22.52;6.03;;;11.80;71.40;;;;;;5072946;28;20483;-70
2021/11/11 08:25:49;;;;;;;15.38;6.70;;;11.80;70.90;;;;;;5073084;28;20111;-70
2021/11/11 08:28:17;;;;;;;35.38;6.80;;;11.90;70.70;;;;;;5072683;28;20028;-71
2021/11/11 08:30:45;;;;;;;15.73;5.53;;;12.00;73.40;;;;;;5074497;28;20020;-70
2021/11/11 08:33:11;;;;;;;17.20;5.47;;;12.10;83.80;;;;;;5076742;28;20032;-70
2021/11/11 08:35:38;;;;;;;19.33;8.52;;;12.00;70.30;;;;;;5076915;28;20029;-71
2021/11/11 08:38:04;;;;;;;17.48;8.45;;;12.10;70.60;;;;;;5076393;28;20025;-71
2021/11/11 08:40:31;;;;;;;21.15;8.98;;;12.20;71.50;;;;;;5076476;28;20025;-71
2021/11/11 08:42:59;;;;;;;13.07;8.73;;;12.30;71.50;;;;;;5076252;28;20070;-71
2021/11/11 08:45:27;;;;;;;15.15;9.05;;;12.30;72.20;;;;;;5075574;28;20031;-71
2021/11/11 08:47:55;;;;;;;21.77;9.32;;;12.30;72.00;;;;;;5076015;28;20028;-71
2021/11/11 08:50:23;;;;;;;15.38;8.45;;;12.40;76.70;;;;;;5076168;28;20020;-71
2021/11/11 08:52:54;;;;;;;16.83;9.13;;;12.50;78.40;;;;;;5075254;28;20134;-71
2021/11/11 08:55:23;;;;;;;13.15;7.95;;;12.60;79.50;;;;;;5075629;28;20028;-71
2021/11/11 08:57:50;;;;;;;20.95;8.93;;;12.60;79.60;;;;;;5075181;28;20103;-70
2021/11/11 09:00:20;;;;;;;19.40;8.18;;;12.70;80.20;;;;;;5074838;28;20029;-71
2021/11/11 09:02:49;;;;;;;23.08;8.45;;;12.70;80.20;;;;;;5076043;28;20032;-71
2021/11/11 09:05:16;;;;;;;21.85;8.75;;;12.80;80.30;;;;;;5076046;28;20021;-71
2021/11/11 09:07:43;;;;;;;13.77;7.90;;;12.90;80.80;;;;;;5075840;28;20036;-71
2021/11/11 09:10:12;;;;;;;15.57;8.68;;;13.00;79.90;;;;;;5075882;28;20476;-71
2021/11/11 09:12:38;;;;;;;12.65;8.10;;;13.00;79.70;;;;;;5075838;28;20428;-71
2021/11/11 09:15:06;;;;;;;12.50;7.93;;;13.10;80.90;;;;;;5074900;28;20024;-71
2021/11/11 09:17:32;;;;;;;18.75;7.90;;;13.10;74.20;;;;;;5075332;28;20017;-71
2021/11/11 09:19:59;;;;;;;12.63;7.80;;;13.20;74.60;;;;;;5075528;28;20119;-71
2021/11/11 09:22:25;;;;;;;16.35;8.25;;;13.30;73.80;;;;;;5075832;28;20008;-71
2021/11/11 09:24:51;;;;;;;14.43;8.02;;;13.30;73.50;;;;;;5075788;28;20055;-71
2021/11/11 09:27:16;;;;;;;22.80;8.55;;;13.40;73.20;;;;;;5075527;28;20017;-71
2021/11/11 09:29:42;;;;;;;16.88;8.20;;;13.40;72.30;;;;;;5075518;28;20020;-72
2021/11/11 09:32:08;;;;;;;12.32;7.90;;;13.40;71.80;;;;;;5074372;28;20053;-72
2021/11/11 09:34:34;;;;;;;13.20;7.97;;;13.50;71.70;;;;;;5075266;28;20032;-71
2021/11/11 09:37:00;;;;;;;9.07;6.80;;;13.60;72.30;;;;;;5074121;28;20020;-71
2021/11/11 09:39:25;;;;;;;12.98;7.03;;;13.70;71.40;;;;;;5072308;28;20025;-71
2021/11/11 09:41:56;;;;;;;13.07;6.82;;;13.70;70.90;;;;;;5071896;28;20055;-71
2021/11/11 09:44:25;;;;;;;12.98;5.97;;;13.80;70.90;;;;;;5072579;28;20029;-71
2021/11/11 09:46:52;;;;;;;10.50;6.20;;;13.90;70.30;;;;;;5074082;28;20032;-71
2021/11/11 09:49:20;;;;;;;11.63;5.43;;;13.90;70.10;;;;;;5073371;28;20025;-71
2021/11/11 09:51:48;;;;;;;9.80;5.95;;;14.00;69.80;;;;;;5072920;28;20533;-71
2021/11/11 09:59:30;;;;;;;10.90;5.35;;;14.30;69.00;;;;;;5075324;28;20122;-71
2021/11/11 10:01:58;;;;;;;15.68;5.15;;;14.30;68.50;;;;;;5074967;28;20435;-72
2021/11/11 10:04:25;;;;;;;10.20;5.15;;;14.30;68.60;;;;;;5073554;28;20020;-72
2021/11/11 10:06:51;;;;;;;10.20;5.32;;;14.40;68.60;;;;;;5074570;28;20053;-72
2021/11/11 10:09:20;;;;;;;9.25;5.25;;;14.50;68.50;;;;;;5073024;28;20473;-71
2021/11/11 10:11:52;;;;;;;9.80;5.32;;;14.60;68.60;;;;;;5074714;28;20025;-72
2021/11/11 10:14:28;;;;;;;10.15;5.90;;;14.60;68.10;;;;;;5089880;28;20040;-71
2021/11/11 10:16:59;;;;;;;7.95;4.47;;;14.70;67.80;;;;;;5073337;28;20024;-72
2021/11/11 10:19:27;;;;;;;12.18;5.55;;;14.80;67.50;;;;;;5073128;28;20607;-72
2021/11/11 10:22:09;;;;;;;9.55;4.72;;;14.90;67.00;;;;;;5073435;28;20020;-72
2021/11/11 10:24:49;;;;;;;11.35;5.25;;;15.00;67.10;;;;;;5073762;28;20045;-72
2021/11/11 10:27:31;;;;;;;10.40;4.80;;;15.10;66.80;;;;;;5073425;28;20048;-72
2021/11/11 10:30:08;;;;;;;7.70;4.32;;;15.10;66.70;;;;;;5074059;28;20529;-72
2021/11/11 10:32:39;;;;;;;9.20;4.03;;;15.20;66.80;;;;;;5074146;28;20058;-71
2021/11/11 10:35:20;;;;;;;11.23;4.47;;;15.30;66.90;;;;;;5073301;28;20384;-71
2021/11/11 10:38:00;;;;;;;8.07;5.07;;;15.40;66.70;;;;;;5073895;28;20021;-73
2021/11/11 10:40:32;;;;;;;8.45;4.05;;;15.50;66.50;;;;;;5074171;28;20388;-72
2021/11/11 10:43:01;;;;;;;8.75;3.80;;;15.50;66.30;;;;;;5074167;28;20017;-72
2021/11/11 10:45:33;;;;;;;13.60;4.72;;;15.60;65.60;;;;;;5072700;28;20032;-72
2021/11/11 10:48:03;;;;;;;10.48;4.18;;;15.70;65.70;;;;;;5071893;28;20091;-72
2021/11/11 10:50:46;;;;;;;9.88;5.07;;;15.80;65.90;;;;;;5073665;28;20024;-71
2021/11/11 10:53:14;;;;;;;8.82;4.45;;;15.90;65.90;;;;;;5072906;28;20477;-72
2021/11/11 10:55:51;;;;;;;12.15;6.15;;;15.90;65.70;;;;;;5074026;28;20025;-73
2021/11/11 10:58:20;;;;;;;10.43;5.07;;;16.00;65.80;;;;;;5071703;28;20028;-72
2021/11/11 11:00:46;;;;;;;8.95;4.53;;;16.10;65.90;;;;;;5071691;28;20032;-72
2021/11/11 11:03:39;;;;;;;9.93;4.88;;;16.20;65.90;;;;;;5072128;28;20023;-72
2021/11/11 11:06:17;;;;;;;8.63;4.68;;;16.20;65.80;;;;;;5073393;28;20021;-72
2021/11/11 11:08:48;;;;;;;9.73;4.57;;;16.30;65.10;;;;;;5073713;28;20046;-72
2021/11/11 11:11:19;;;;;;;14.63;4.15;;;16.40;64.80;;;;;;5073329;28;20052;-73
2021/11/11 11:13:53;;;;;;;9.25;4.20;;;16.40;65.00;;;;;;5072724;28;20131;-72
2021/11/11 11:16:22;;;;;;;11.43;5.07;;;16.50;65.80;;;;;;5073377;28;20052;-72
2021/11/11 11:18:55;;;;;;;8.50;4.30;;;16.60;65.00;;;;;;5073238;28;20048;-72
2021/11/11 11:21:25;;;;;;;11.98;4.70;;;16.70;64.50;;;;;;5072511;28;20024;-72
2021/11/11 11:24:01;;;;;;;8.55;4.82;;;16.70;64.70;;;;;;5073524;28;20036;-72
2021/11/11 11:26:31;;;;;;;9.18;5.00;;;16.80;64.60;;;;;;5073468;28;20029;-72
2021/11/11 11:32:30;;;;;;;8.45;5.15;;;16.90;65.50;;;;;;5073643;28;20021;-72
2021/11/11 11:34:30;;;;;;;13.43;5.65;;;17.00;66.10;;;;;;5069593;28;20044;-73
2021/11/11 11:37:03;;;;;;;13.60;5.80;;;17.10;66.30;;;;;;5073956;28;20031;-72
2021/11/11 11:39:40;;;;;;;15.95;5.18;;;17.10;66.70;;;;;;5073547;28;20067;-73
2021/11/11 11:42:07;;;;;;;8.77;5.25;;;17.20;66.70;;;;;;5073628;28;20412;-72
2021/11/11 11:44:33;;;;;;;9.00;5.63;;;17.30;66.50;;;;;;5073440;28;20158;-72
2021/11/11 11:49:56;;;;;;;7.80;4.97;;;17.40;65.80;;;;;;5073343;28;20028;-72
2021/11/11 11:52:24;;;;;;;10.20;4.78;;;17.40;65.50;;;;;;5073364;28;20019;-72
2021/11/11 11:55:00;;;;;;;6.68;4.60;;;17.50;65.30;;;;;;5073220;28;20033;-72
2021/11/11 12:03:21;;;;;;;8.80;4.78;;;17.60;65.70;;;;;;5073216;28;20025;-73
2021/11/11 12:05:53;;;;;;;6.03;4.18;;;17.70;65.40;;;;;;5072701;28;20033;-72
2021/11/11 12:09:12;;;;;;;6.97;4.35;;;17.70;65.50;;;;;;5073273;28;20036;-73
2021/11/11 12:14:18;;;;;;;11.52;5.30;;;17.80;65.00;;;;;;5041762;28;20041;-72
2021/11/11 12:39:33;;;;;;;7.25;3.92;;;18.00;63.90;;;;;;5072606;28;20040;-72
2021/11/11 12:42:05;;;;;;;8.45;5.10;;;18.00;63.90;;;;;;5072840;28;20017;-72
2021/11/11 12:44:31;;;;;;;8.15;4.35;;;18.10;65.00;;;;;;5072521;28;20021;-72
2021/11/11 12:47:01;;;;;;;7.53;4.70;;;18.10;64.60;;;;;;5072747;28;20028;-72
2021/11/11 12:49:34;;;;;;;9.00;4.18;;;18.10;65.00;;;;;;5072699;28;20021;-72
2021/11/11 12:52:26;;;;;;;9.32;4.63;;;18.10;64.60;;;;;;5072631;28;20107;-72
2021/11/11 12:55:18;;;;;;;11.02;4.57;;;18.10;64.50;;;;;;5071716;28;20036;-72
2021/11/11 12:58:00;;;;;;;14.10;5.05;;;18.10;65.40;;;;;;5072547;28;20024;-72
2021/11/11 13:00:39;;;;;;;9.40;4.30;;;18.10;65.20;;;;;;5072774;28;20491;-72
2021/11/11 13:03:06;;;;;;;8.73;4.57;;;18.10;64.50;;;;;;5072333;28;20099;-71
2021/11/11 13:05:54;;;;;;;8.48;4.22;;;18.10;65.00;;;;;;5072598;28;20473;-74
2021/11/11 13:08:44;;;;;;;8.20;4.35;;;18.10;65.10;;;;;;5068977;28;20040;-74
2021/11/11 13:11:11;;;;;;;12.55;5.40;;;18.10;65.80;;;;;;5072555;28;20029;-74
2021/11/11 13:13:39;;;;;;;9.32;4.63;;;18.10;65.80;;;;;;5072526;28;20036;-74
2021/11/11 13:16:19;;;;;;;8.55;4.75;;;18.10;65.50;;;;;;5073340;28;20021;-74
2021/11/11 13:18:48;;;;;;;9.27;4.97;;;18.10;65.40;;;;;;5076140;28;20037;-74
2021/11/11 13:21:29;;;;;;;11.60;5.03;;;18.10;65.40;;;;;;5076276;28;20024;-71
2021/11/11 16:03:40;;;;;;;13.82;6.85;;;16.20;72.50;;;;;;5073101;28;20044;-74
2021/11/11 16:27:11;;;;;;;11.23;7.35;;;15.90;74.10;;;;;;5072553;28;20037;-73
2021/11/11 16:29:37;;;;;;;16.33;8.23;;;15.80;74.20;;;;;;5072800;28;20469;-72
2021/11/11 16:32:04;;;;;;;14.23;8.43;;;15.80;74.40;;;;;;5072392;28;20028;-73
2021/11/11 16:34:30;;;;;;;17.77;9.55;;;15.70;74.50;;;;;;5071164;28;20044;-73
2021/11/11 16:36:56;;;;;;;16.25;8.60;;;15.70;74.80;;;;;;5072608;28;20028;-74
2021/11/11 16:39:23;;;;;;;17.42;10.48;;;15.60;74.80;;;;;;5069225;28;20032;-74
2021/11/11 16:41:49;;;;;;;20.65;12.40;;;15.60;75.00;;;;;;5069685;28;20055;-74
2021/11/11 16:44:16;;;;;;;21.08;11.40;;;15.50;75.00;;;;;;5070001;28;20110;-74
2021/11/11 16:46:44;;;;;;;21.50;11.27;;;15.50;75.40;;;;;;5072445;28;20108;-74
2021/11/11 16:49:11;;;;;;;16.05;11.55;;;15.40;75.50;;;;;;5072711;28;20020;-74
2021/11/11 16:51:38;;;;;;;15.85;11.50;;;15.50;75.50;;;;;;5074560;28;20099;-74
2021/11/11 16:54:04;;;;;;;23.85;13.00;;;15.40;75.60;;;;;;5076411;28;20029;-74
2021/11/11 16:56:30;;;;;;;16.20;12.70;;;15.40;75.70;;;;;;5076107;28;20044;-74
2021/11/11 16:58:57;;;;;;;17.25;12.10;;;15.40;75.80;;;;;;5075074;28;20162;-75